Time;durP1;ratioP1;P1;durP2;ratioP2;P2;SDS_P1;SDS_P2;PMS_P1;PMS_P2;Temp;Humidity;BMP_temperature;BMP_pressure;BME280_temperature;BME280_humidity;BME280_pressure;Samples;Min_cycle;Max_cycle;Signal;HPM_P1;HPM_P2
2022/11/12 00:00:01;;;;;;;13.38;6.85;;;;;;;;;;5035187;28;20057;-76
2022/11/12 00:02:28;;;;;;;15.00;7.32;;;;;;;;;;5029052;28;20049;-78
2022/11/12 00:04:54;;;;;;;12.05;6.70;;;;;;;;;;5010146;28;20046;-78
2022/11/12 00:07:20;;;;;;;11.98;6.53;;;;;;;;;;5026872;28;20069;-79
2022/11/12 00:09:46;;;;;;;12.40;6.47;;;;;;;;;;5028625;28;20042;-76
2022/11/12 00:12:13;;;;;;;13.20;7.30;;;;;;;;;;5010330;28;20061;-80
2022/11/12 00:14:39;;;;;;;13.68;7.78;;;;;;;;;;5010406;28;20501;-77
2022/11/12 00:17:05;;;;;;;16.00;7.78;;;;;;;;;;5027325;28;20120;-80
2022/11/12 00:19:31;;;;;;;14.35;7.07;;;;;;;;;;5010671;28;20062;-78
2022/11/12 00:21:58;;;;;;;14.55;8.20;;;;;;;;;;5009472;28;20061;-79
2022/11/12 00:24:24;;;;;;;16.95;8.50;;;;;;;;;;5002929;28;20846;-79
2022/11/12 00:26:50;;;;;;;17.15;9.43;;;;;;;;;;5011005;28;20085;-76
2022/11/12 00:29:17;;;;;;;17.15;7.90;;;;;;;;;;5010663;28;20066;-77
2022/11/12 00:31:43;;;;;;;15.88;8.20;;;;;;;;;;5010964;28;20050;-79
2022/11/12 00:34:09;;;;;;;18.98;9.23;;;;;;;;;;5027355;28;20895;-77
2022/11/12 00:36:36;;;;;;;16.50;8.38;;;;;;;;;;5011540;28;20437;-77
2022/11/12 00:39:02;;;;;;;17.83;8.88;;;;;;;;;;5009594;28;20144;-79
2022/11/12 00:41:29;;;;;;;14.65;7.80;;;;;;;;;;5028679;28;20096;-80
2022/11/12 00:43:55;;;;;;;15.77;7.75;;;;;;;;;;5010823;28;20057;-79
2022/11/12 00:46:21;;;;;;;18.40;8.82;;;;;;;;;;5011028;28;20452;-75
2022/11/12 00:48:48;;;;;;;14.85;7.95;;;;;;;;;;5039442;28;20046;-76
2022/11/12 00:51:14;;;;;;;16.85;8.18;;;;;;;;;;5010634;28;20062;-76
2022/11/12 00:53:40;;;;;;;21.67;8.55;;;;;;;;;;5009996;28;20501;-77
2022/11/12 00:56:07;;;;;;;18.85;8.70;;;;;;;;;;5026231;28;20049;-77
2022/11/12 00:58:34;;;;;;;19.55;8.40;;;;;;;;;;5028507;28;20066;-79
2022/11/12 01:01:05;;;;;;;17.30;8.40;;;;;;;;;;5029893;28;20057;-77
2022/11/12 01:03:31;;;;;;;;;;;;;;;;;;5032010;28;20101;-76
2022/11/12 01:06:04;;;;;;;18.88;9.70;;;;;;;;;;5029316;28;44582;-78
2022/11/12 01:08:31;;;;;;;19.02;9.13;;;;;;;;;;5013886;28;20066;-75
2022/11/12 01:11:23;;;;;;;19.13;8.77;;;;;;;;;;5013051;28;20057;-76
2022/11/12 01:13:54;;;;;;;16.10;8.93;;;;;;;;;;5008476;28;20060;-76
2022/11/12 01:16:21;;;;;;;16.67;9.82;;;;;;;;;;5013335;28;20061;-79
2022/11/12 01:18:51;;;;;;;15.85;9.20;;;;;;;;;;5032121;28;20069;-79
2022/11/12 01:21:17;;;;;;;21.00;9.63;;;;;;;;;;5038086;28;20063;-76
2022/11/12 01:23:43;;;;;;;18.45;9.32;;;;;;;;;;5010570;28;20038;-76
2022/11/12 01:26:11;;;;;;;21.02;9.70;;;;;;;;;;5007860;28;20555;-76
2022/11/12 01:28:38;;;;;;;20.85;9.57;;;;;;;;;;5011869;28;20910;-77
2022/11/12 01:31:11;;;;;;;18.45;10.32;;;;;;;;;;5029886;28;20049;-76
2022/11/12 01:33:38;;;;;;;18.20;9.95;;;;;;;;;;5013676;28;20062;-78
2022/11/12 01:36:05;;;;;;;18.17;9.88;;;;;;;;;;5031539;28;20054;-76
2022/11/12 01:38:35;;;;;;;20.70;10.18;;;;;;;;;;5012908;28;20061;-76
2022/11/12 01:41:01;;;;;;;16.40;10.53;;;;;;;;;;5017945;28;20058;-77
2022/11/12 01:43:28;;;;;;;24.25;11.98;;;;;;;;;;5014086;28;20258;-79
2022/11/12 01:45:55;;;;;;;21.00;10.73;;;;;;;;;;5028721;28;20548;-76
2022/11/12 01:48:26;;;;;;;26.05;11.95;;;;;;;;;;5024012;28;20058;-76
2022/11/12 01:50:54;;;;;;;22.00;11.38;;;;;;;;;;5031030;28;20038;-77
2022/11/12 01:53:21;;;;;;;19.42;10.77;;;;;;;;;;5013360;28;20573;-76
2022/11/12 01:55:48;;;;;;;20.90;10.57;;;;;;;;;;5013058;28;20042;-77
2022/11/12 01:58:15;;;;;;;19.92;10.73;;;;;;;;;;5010929;28;20057;-79
2022/11/12 02:00:41;;;;;;;21.88;11.45;;;;;;;;;;5012742;28;20916;-78
2022/11/12 02:03:10;;;;;;;20.52;11.20;;;;;;;;;;5013126;28;20060;-76
2022/11/12 02:05:37;;;;;;;16.98;9.90;;;;;;;;;;5013611;28;20061;-77
2022/11/12 02:08:04;;;;;;;18.77;9.88;;;;;;;;;;5028701;28;20057;-76
2022/11/12 02:10:31;;;;;;;16.70;9.35;;;;;;;;;;4996009;28;20058;-77
2022/11/12 02:15:42;;;;;;;19.40;10.25;;;;;;;;;;5031004;28;20050;-77
2022/11/12 02:18:08;;;;;;;17.90;9.18;;;;;;;;;;5013449;28;20069;-76
2022/11/12 02:20:36;;;;;;;20.20;9.70;;;;;;;;;;5012977;28;20582;-77
2022/11/12 02:23:03;;;;;;;14.02;8.95;;;;;;;;;;5013708;28;20058;-78
2022/11/12 02:25:29;;;;;;;15.10;8.45;;;;;;;;;;5011735;28;20054;-77
2022/11/12 02:27:57;;;;;;;18.10;8.82;;;;;;;;;;5029117;28;20092;-78
2022/11/12 02:30:33;;;;;;;18.75;9.70;;;;;;;;;;5030992;28;20520;-77
2022/11/12 02:32:59;;;;;;;16.13;9.70;;;;;;;;;;5012387;28;20061;-77
2022/11/12 02:35:26;;;;;;;17.00;9.63;;;;;;;;;;5010375;28;20056;-76
2022/11/12 02:37:52;;;;;;;16.98;10.40;;;;;;;;;;5011373;28;20065;-78
2022/11/12 02:40:19;;;;;;;19.48;10.73;;;;;;;;;;5030999;28;20068;-79
2022/11/12 02:42:45;;;;;;;18.95;10.80;;;;;;;;;;5029307;28;20410;-78
2022/11/12 02:45:12;;;;;;;20.45;10.70;;;;;;;;;;5012198;28;20960;-77
2022/11/12 02:47:38;;;;;;;21.58;11.57;;;;;;;;;;5021043;28;20053;-76
2022/11/12 02:50:04;;;;;;;19.60;11.32;;;;;;;;;;5012570;28;20153;-77
2022/11/12 02:52:31;;;;;;;25.17;12.38;;;;;;;;;;5013389;28;20045;-77
2022/11/12 02:54:57;;;;;;;21.58;12.27;;;;;;;;;;5030346;28;20043;-79
2022/11/12 02:57:24;;;;;;;21.10;11.85;;;;;;;;;;5028977;28;20058;-78
2022/11/12 02:59:50;;;;;;;21.15;11.60;;;;;;;;;;5010093;28;20054;-78
2022/11/12 03:02:16;;;;;;;21.77;11.05;;;;;;;;;;5012922;28;20058;-76
2022/11/12 03:04:43;;;;;;;21.90;11.75;;;;;;;;;;5030410;28;20095;-74
2022/11/12 03:07:14;;;;;;;20.50;11.70;;;;;;;;;;5029033;28;20108;-78
2022/11/12 03:09:41;;;;;;;20.48;11.13;;;;;;;;;;5030029;28;20104;-75
2022/11/12 03:12:07;;;;;;;20.35;11.82;;;;;;;;;;5030334;28;20057;-75
2022/11/12 03:14:33;;;;;;;21.10;11.55;;;;;;;;;;5013381;28;20062;-75
2022/11/12 03:17:00;;;;;;;20.15;11.60;;;;;;;;;;5010644;28;20058;-77
2022/11/12 03:19:26;;;;;;;17.15;10.93;;;;;;;;;;5012997;28;20508;-75
2022/11/12 03:21:52;;;;;;;19.02;11.15;;;;;;;;;;5012644;28;20050;-77
2022/11/12 03:24:19;;;;;;;22.02;11.20;;;;;;;;;;5011477;28;20509;-77
2022/11/12 03:26:45;;;;;;;19.70;11.52;;;;;;;;;;5012159;28;20069;-78
2022/11/12 03:29:11;;;;;;;17.65;10.57;;;;;;;;;;5028736;28;20844;-76
2022/11/12 03:31:37;;;;;;;19.25;10.73;;;;;;;;;;5012883;28;20062;-77
2022/11/12 03:34:04;;;;;;;22.90;11.60;;;;;;;;;;5028903;28;20057;-79
2022/11/12 03:36:30;;;;;;;23.23;11.65;;;;;;;;;;5012814;28;20050;-76
2022/11/12 03:38:56;;;;;;;22.50;12.10;;;;;;;;;;5011625;28;20053;-76
2022/11/12 03:41:23;;;;;;;19.27;11.18;;;;;;;;;;5011696;28;21275;-75
2022/11/12 03:43:49;;;;;;;20.05;10.98;;;;;;;;;;5009017;28;20058;-75
2022/11/12 03:46:15;;;;;;;21.35;10.63;;;;;;;;;;5012227;28;20057;-76
2022/11/12 03:48:41;;;;;;;18.98;11.30;;;;;;;;;;5026376;28;20796;-77
2022/11/12 03:51:08;;;;;;;24.38;12.13;;;;;;;;;;5009853;28;20053;-78
2022/11/12 03:53:35;;;;;;;21.17;11.68;;;;;;;;;;5007029;28;20585;-78
2022/11/12 03:56:01;;;;;;;24.02;13.30;;;;;;;;;;5028044;28;20139;-78
2022/11/12 03:58:27;;;;;;;27.10;12.57;;;;;;;;;;5010669;28;20517;-76
2022/11/12 04:00:54;;;;;;;21.45;12.15;;;;;;;;;;5010877;28;20089;-75
2022/11/12 04:03:20;;;;;;;21.65;12.15;;;;;;;;;;5008302;28;20077;-77
2022/11/12 04:08:34;;;;;;;24.38;12.80;;;;;;;;;;5016814;28;20053;-78
2022/11/12 04:11:02;;;;;;;21.80;12.32;;;;;;;;;;5009128;28;20167;-75
2022/11/12 04:13:30;;;;;;;21.75;12.23;;;;;;;;;;5025841;28;20053;-78
2022/11/12 04:21:49;;;;;;;18.25;9.75;;;;;;;;;;5028015;28;20081;-78
2022/11/12 04:27:01;;;;;;;20.23;11.38;;;;;;;;;;5028785;28;20542;-75
2022/11/12 04:32:13;;;;;;;20.20;11.00;;;;;;;;;;5024469;28;20062;-77
2022/11/12 04:34:39;;;;;;;23.20;11.95;;;;;;;;;;5009567;28;20058;-76
2022/11/12 04:37:06;;;;;;;23.08;11.45;;;;;;;;;;5009232;28;20053;-75
2022/11/12 04:39:32;;;;;;;22.30;12.45;;;;;;;;;;5024951;28;20535;-77
2022/11/12 04:45:00;;;;;;;19.00;10.82;;;;;;;;;;5029787;28;20050;-78
2022/11/12 04:47:37;;;;;;;19.90;10.82;;;;;;;;;;5016721;28;20050;-75
2022/11/12 04:50:05;;;;;;;19.88;10.88;;;;;;;;;;4990333;28;20058;-77
2022/11/12 04:52:31;;;;;;;18.55;10.65;;;;;;;;;;5024538;28;20472;-74
2022/11/12 04:54:58;;;;;;;21.10;11.00;;;;;;;;;;5009586;28;20061;-78
2022/11/12 04:57:24;;;;;;;17.83;9.80;;;;;;;;;;5008989;28;20520;-77
2022/11/12 04:59:51;;;;;;;22.65;11.07;;;;;;;;;;5008195;28;20172;-75
2022/11/12 05:02:17;;;;;;;21.23;11.52;;;;;;;;;;5017019;28;21010;-75
2022/11/12 05:04:43;;;;;;;18.15;10.98;;;;;;;;;;5013236;28;21264;-77
2022/11/12 05:07:10;;;;;;;18.05;10.52;;;;;;;;;;5027135;28;20116;-77
2022/11/12 05:09:36;;;;;;;21.80;11.95;;;;;;;;;;5027826;28;20919;-77
2022/11/12 05:12:03;;;;;;;20.67;10.82;;;;;;;;;;5009943;28;20058;-78
2022/11/12 05:14:29;;;;;;;20.45;11.23;;;;;;;;;;5010186;28;20050;-78
2022/11/12 05:16:55;;;;;;;20.65;10.88;;;;;;;;;;5009902;28;20053;-78
2022/11/12 05:19:22;;;;;;;25.05;12.40;;;;;;;;;;5031784;28;20066;-78
2022/11/12 05:22:06;;;;;;;20.38;11.05;;;;;;;;;;5009217;28;20062;-74
2022/11/12 05:24:47;;;;;;;19.60;11.25;;;;;;;;;;5027350;28;20077;-77
2022/11/12 05:27:15;;;;;;;22.65;12.73;;;;;;;;;;5010788;28;20061;-77
2022/11/12 05:29:41;;;;;;;22.95;13.57;;;;;;;;;;5008397;28;20112;-74
2022/11/12 05:32:09;;;;;;;21.73;12.80;;;;;;;;;;5010045;28;20054;-77
2022/11/12 05:34:35;;;;;;;25.52;13.75;;;;;;;;;;5009154;28;20483;-77
2022/11/12 05:37:03;;;;;;;23.00;13.55;;;;;;;;;;5009517;28;20034;-77
2022/11/12 05:39:29;;;;;;;23.17;12.93;;;;;;;;;;5023544;28;20571;-74
2022/11/12 05:41:55;;;;;;;23.52;13.35;;;;;;;;;;5028350;28;20109;-74
2022/11/12 05:44:39;;;;;;;23.75;13.70;;;;;;;;;;5026965;28;20057;-78
2022/11/12 05:47:06;;;;;;;30.33;15.15;;;;;;;;;;5010606;28;20056;-76
2022/11/12 05:49:32;;;;;;;26.73;13.10;;;;;;;;;;5029956;28;20065;-74
2022/11/12 05:51:58;;;;;;;29.23;13.43;;;;;;;;;;5031049;28;20057;-77
2022/11/12 05:54:25;;;;;;;27.00;12.80;;;;;;;;;;5019769;28;20073;-77
2022/11/12 05:56:52;;;;;;;27.80;14.23;;;;;;;;;;5013591;28;20053;-75
2022/11/12 05:59:18;;;;;;;22.75;13.50;;;;;;;;;;5011494;28;20061;-75
2022/11/12 06:01:45;;;;;;;31.08;14.07;;;;;;;;;;5013672;28;20054;-77
2022/11/12 06:04:14;;;;;;;27.55;13.35;;;;;;;;;;5012362;28;20058;-74
2022/11/12 06:06:41;;;;;;;26.35;13.38;;;;;;;;;;5013524;28;21112;-76
2022/11/12 06:09:08;;;;;;;26.38;13.18;;;;;;;;;;5013251;28;20066;-75
2022/11/12 06:11:35;;;;;;;37.47;12.93;;;;;;;;;;5009909;28;20054;-77
2022/11/12 06:14:02;;;;;;;47.80;14.70;;;;;;;;;;5012919;28;20054;-74
2022/11/12 06:16:29;;;;;;;29.92;14.63;;;;;;;;;;5013179;28;20058;-77
2022/11/12 06:18:55;;;;;;;48.75;15.48;;;;;;;;;;5030078;28;20065;-77
2022/11/12 06:21:21;;;;;;;27.33;13.25;;;;;;;;;;5012397;28;20104;-75
2022/11/12 06:23:50;;;;;;;21.35;11.75;;;;;;;;;;5013214;28;20050;-75
2022/11/12 06:26:16;;;;;;;21.52;11.20;;;;;;;;;;5028753;28;20065;-74
2022/11/12 06:28:42;;;;;;;22.58;11.30;;;;;;;;;;5013789;28;20061;-77
2022/11/12 06:31:09;;;;;;;19.52;11.20;;;;;;;;;;5011683;28;20575;-77
2022/11/12 06:33:35;;;;;;;20.00;11.30;;;;;;;;;;5012054;28;20049;-77
2022/11/12 06:36:03;;;;;;;23.02;12.23;;;;;;;;;;5009882;28;20065;-75
2022/11/12 06:38:33;;;;;;;20.90;11.23;;;;;;;;;;5028490;28;20560;-77
2022/11/12 06:41:00;;;;;;;25.63;12.07;;;;;;;;;;5008829;28;20065;-75
2022/11/12 06:43:27;;;;;;;20.02;11.55;;;;;;;;;;5008356;28;20096;-75
2022/11/12 06:45:57;;;;;;;21.23;11.45;;;;;;;;;;5029028;28;20106;-77
2022/11/12 06:48:23;;;;;;;17.98;10.63;;;;;;;;;;5012450;28;20057;-75
2022/11/12 06:50:49;;;;;;;21.88;11.90;;;;;;;;;;5008212;28;20058;-76
2022/11/12 06:53:16;;;;;;;22.42;11.95;;;;;;;;;;5001686;28;20065;-78
2022/11/12 06:55:42;;;;;;;21.92;10.85;;;;;;;;;;5007294;28;20055;-77
2022/11/12 06:58:08;;;;;;;18.23;11.02;;;;;;;;;;5009324;28;20062;-77
2022/11/12 07:00:35;;;;;;;18.92;10.98;;;;;;;;;;5006736;28;20066;-77
2022/11/12 07:03:05;;;;;;;18.63;10.77;;;;;;;;;;5015544;28;20061;-74
2022/11/12 07:05:34;;;;;;;20.10;10.43;;;;;;;;;;5005983;28;20548;-78
2022/11/12 07:08:00;;;;;;;16.65;9.63;;;;;;;;;;5012687;28;20363;-76
2022/11/12 07:10:26;;;;;;;18.08;9.60;;;;;;;;;;5012625;28;20062;-76
2022/11/12 07:12:53;;;;;;;19.20;10.77;;;;;;;;;;5030373;28;20050;-77
2022/11/12 07:15:19;;;;;;;19.10;11.40;;;;;;;;;;5031130;28;20054;-78
2022/11/12 07:17:46;;;;;;;20.08;11.38;;;;;;;;;;5031050;28;20057;-77
2022/11/12 07:20:12;;;;;;;20.00;11.10;;;;;;;;;;5011747;28;20065;-77
2022/11/12 07:22:38;;;;;;;17.92;10.70;;;;;;;;;;5012941;28;20058;-78
2022/11/12 07:25:05;;;;;;;18.40;10.82;;;;;;;;;;5029608;28;20042;-77
2022/11/12 07:27:31;;;;;;;20.13;11.68;;;;;;;;;;5029207;28;20090;-75
2022/11/12 07:29:57;;;;;;;17.10;10.40;;;;;;;;;;5012872;28;20050;-76
2022/11/12 07:32:24;;;;;;;17.13;9.80;;;;;;;;;;5012333;28;20042;-77
2022/11/12 07:34:50;;;;;;;17.20;9.93;;;;;;;;;;5030261;28;20069;-78
2022/11/12 07:37:16;;;;;;;20.33;10.90;;;;;;;;;;5012677;28;20113;-74
2022/11/12 07:39:42;;;;;;;15.68;10.48;;;;;;;;;;5011547;28;20061;-78
2022/11/12 07:42:09;;;;;;;17.63;9.90;;;;;;;;;;5012605;28;20154;-78
2022/11/12 07:44:35;;;;;;;16.90;10.20;;;;;;;;;;5012228;28;20053;-78
2022/11/12 07:47:01;;;;;;;15.52;9.43;;;;;;;;;;5012880;28;20504;-75
2022/11/12 07:49:28;;;;;;;15.38;10.15;;;;;;;;;;5012247;28;20058;-78
2022/11/12 07:51:54;;;;;;;15.35;9.60;;;;;;;;;;5012122;28;20061;-77
2022/11/12 07:54:20;;;;;;;18.15;10.68;;;;;;;;;;5005939;28;20191;-78
2022/11/12 07:56:46;;;;;;;18.25;9.20;;;;;;;;;;5003637;28;20050;-75
2022/11/12 07:59:13;;;;;;;19.58;11.18;;;;;;;;;;5004631;28;20049;-75
2022/11/12 08:01:40;;;;;;;15.40;9.98;;;;;;;;;;5024370;28;20460;-77
2022/11/12 08:04:08;;;;;;;19.85;9.57;;;;;;;;;;5009996;28;20057;-75
2022/11/12 08:06:35;;;;;;;18.30;9.88;;;;;;;;;;5012694;28;20057;-78
2022/11/12 08:09:03;;;;;;;19.27;11.25;;;;;;;;;;5011192;28;20050;-75
2022/11/12 08:11:30;;;;;;;18.80;10.73;;;;;;;;;;5009927;28;20065;-76
2022/11/12 08:13:57;;;;;;;17.52;10.75;;;;;;;;;;5007148;28;20551;-77
2022/11/12 08:16:23;;;;;;;21.08;10.90;;;;;;;;;;5006335;28;20076;-77
2022/11/12 08:18:50;;;;;;;18.90;11.35;;;;;;;;;;5005855;28;20061;-78
2022/11/12 08:21:17;;;;;;;20.05;12.15;;;;;;;;;;5011102;28;20042;-76
2022/11/12 08:23:43;;;;;;;20.65;11.48;;;;;;;;;;5011284;28;20069;-77
2022/11/12 08:26:11;;;;;;;22.67;12.43;;;;;;;;;;5027767;28;20062;-76
2022/11/12 08:28:38;;;;;;;21.92;11.85;;;;;;;;;;5024913;28;20065;-77
2022/11/12 08:31:15;;;;;;;28.85;15.13;;;;;;;;;;5025402;28;20298;-77
2022/11/12 08:33:41;;;;;;;27.17;13.82;;;;;;;;;;5005833;28;20058;-76
2022/11/12 08:36:09;;;;;;;28.05;15.13;;;;;;;;;;5003532;28;20089;-75
2022/11/12 08:38:38;;;;;;;30.33;15.50;;;;;;;;;;5007409;28;20897;-77
2022/11/12 08:41:06;;;;;;;22.88;13.45;;;;;;;;;;5025528;28;20058;-77
2022/11/12 08:43:33;;;;;;;25.30;13.57;;;;;;;;;;5026139;28;20064;-77
2022/11/12 08:46:00;;;;;;;31.13;15.88;;;;;;;;;;5009105;28;20083;-75
2022/11/12 08:48:27;;;;;;;25.23;13.98;;;;;;;;;;5000316;28;20612;-75
2022/11/12 08:50:54;;;;;;;21.25;12.80;;;;;;;;;;5025549;28;20062;-77
2022/11/12 08:53:21;;;;;;;22.80;12.88;;;;;;;;;;5023663;28;20049;-77
2022/11/12 08:55:48;;;;;;;30.63;17.60;;;;;;;;;;5004674;28;20057;-76
2022/11/12 08:58:14;;;;;;;25.85;14.35;;;;;;;;;;5002980;28;20061;-77
2022/11/12 09:00:42;;;;;;;36.17;18.13;;;;;;;;;;5037199;28;20057;-78
2022/11/12 09:03:16;;;;;;;28.33;16.27;;;;;;;;;;5029822;28;20918;-77
2022/11/12 09:05:42;;;;;;;34.40;17.73;;;;;;;;;;5029779;28;20080;-77
2022/11/12 09:08:10;;;;;;;30.90;18.17;;;;;;;;;;5047099;28;20037;-77
2022/11/12 09:10:37;;;;;;;30.13;17.75;;;;;;;;;;5029263;28;20080;-77
2022/11/12 09:13:04;;;;;;;32.85;17.95;;;;;;;;;;5025712;28;20057;-78
2022/11/12 09:15:31;;;;;;;31.98;17.10;;;;;;;;;;5046239;28;20108;-78
2022/11/12 09:18:05;;;;;;;27.75;15.93;;;;;;;;;;5047236;28;20496;-77
2022/11/12 09:20:32;;;;;;;34.00;17.95;;;;;;;;;;5028896;28;20053;-78
2022/11/12 09:23:07;;;;;;;27.85;16.75;;;;;;;;;;5031361;28;20066;-77
2022/11/12 09:25:33;;;;;;;26.83;15.13;;;;;;;;;;5033491;28;20065;-77
2022/11/12 09:28:18;;;;;;;23.35;13.40;;;;;;;;;;5033132;28;20062;-77
2022/11/12 09:30:45;;;;;;;24.65;14.77;;;;;;;;;;5033436;28;20061;-78
2022/11/12 09:33:12;;;;;;;26.73;15.38;;;;;;;;;;5033008;28;20143;-77
2022/11/12 09:35:39;;;;;;;27.77;14.65;;;;;;;;;;5050161;28;20751;-79
2022/11/12 09:38:05;;;;;;;20.60;12.88;;;;;;;;;;5051060;28;20058;-79
2022/11/12 09:41:01;;;;;;;21.30;13.07;;;;;;;;;;5033620;28;20061;-79
2022/11/12 09:43:36;;;;;;;24.58;14.43;;;;;;;;;;4995445;28;20066;-78
2022/11/12 09:46:05;;;;;;;24.52;13.98;;;;;;;;;;5032366;28;20057;-77
2022/11/12 09:48:57;;;;;;;22.48;13.63;;;;;;;;;;5048942;28;20064;-78
2022/11/12 09:51:32;;;;;;;23.75;12.77;;;;;;;;;;5000097;28;20670;-78
2022/11/12 09:54:01;;;;;;;27.02;14.02;;;;;;;;;;5012545;28;20073;-78
2022/11/12 09:56:28;;;;;;;19.98;11.63;;;;;;;;;;5028482;28;20520;-78
2022/11/12 09:58:55;;;;;;;21.67;12.65;;;;;;;;;;5019058;28;20068;-78
2022/11/12 10:01:23;;;;;;;18.38;11.93;;;;;;;;;;5008850;28;20093;-79
2022/11/12 10:03:51;;;;;;;18.58;11.57;;;;;;;;;;5022093;28;20101;-78
2022/11/12 10:06:20;;;;;;;19.15;11.68;;;;;;;;;;5010881;28;20062;-78
2022/11/12 10:09:05;;;;;;;17.50;10.73;;;;;;;;;;5012104;28;20053;-77
2022/11/12 10:14:48;;;;;;;18.10;10.20;;;;;;;;;;5027226;28;20058;-78
2022/11/12 10:17:23;;;;;;;18.35;11.05;;;;;;;;;;5003090;28;20050;-77
2022/11/12 10:20:08;;;;;;;15.55;10.13;;;;;;;;;;5009883;28;20110;-78
2022/11/12 10:22:37;;;;;;;18.25;10.00;;;;;;;;;;5012106;28;20061;-76
2022/11/12 10:25:17;;;;;;;14.95;9.30;;;;;;;;;;5025791;28;20053;-78
2022/11/12 10:27:44;;;;;;;19.05;9.88;;;;;;;;;;5010981;28;20519;-77
2022/11/12 10:30:15;;;;;;;14.95;9.77;;;;;;;;;;5010626;28;20565;-78
2022/11/12 10:32:43;;;;;;;16.17;9.90;;;;;;;;;;5008738;28;20049;-76
2022/11/12 10:35:11;;;;;;;14.50;9.20;;;;;;;;;;5014742;28;20053;-77
2022/11/12 10:37:44;;;;;;;15.85;9.30;;;;;;;;;;5031280;28;20619;-78
2022/11/12 10:40:20;;;;;;;17.33;9.02;;;;;;;;;;5022603;28;20069;-76
2022/11/12 10:43:12;;;;;;;15.25;8.52;;;;;;;;;;5011578;28;20058;-78
2022/11/12 10:45:39;;;;;;;15.88;9.35;;;;;;;;;;5008383;28;20505;-77
2022/11/12 10:48:19;;;;;;;16.90;9.88;;;;;;;;;;5012093;28;20558;-78
2022/11/12 10:50:52;;;;;;;16.65;10.73;;;;;;;;;;5012081;28;20174;-76
2022/11/12 10:53:30;;;;;;;13.93;8.88;;;;;;;;;;5011065;28;20061;-78
2022/11/12 10:55:58;;;;;;;14.73;8.57;;;;;;;;;;5010895;28;20057;-76
2022/11/12 10:58:24;;;;;;;15.75;8.77;;;;;;;;;;5028847;28;20034;-76
2022/11/12 11:01:06;;;;;;;14.10;9.15;;;;;;;;;;5010764;28;20065;-78
2022/11/12 11:03:33;;;;;;;13.20;8.05;;;;;;;;;;5011228;28;20149;-77
2022/11/12 11:06:03;;;;;;;14.98;9.23;;;;;;;;;;5011471;28;20066;-78
2022/11/12 11:08:40;;;;;;;14.18;8.65;;;;;;;;;;5029204;28;20513;-78
2022/11/12 11:11:15;;;;;;;13.48;9.13;;;;;;;;;;5010628;28;20061;-78
2022/11/12 11:13:46;;;;;;;14.63;9.07;;;;;;;;;;5029163;28;20062;-76
2022/11/12 11:16:21;;;;;;;17.45;9.32;;;;;;;;;;5018138;28;20053;-78
2022/11/12 11:18:49;;;;;;;13.13;8.55;;;;;;;;;;5048145;28;20060;-76
2022/11/12 11:21:24;;;;;;;15.15;9.02;;;;;;;;;;5048008;28;20050;-77
2022/11/12 11:23:51;;;;;;;14.75;9.10;;;;;;;;;;5021805;28;20109;-78
2022/11/12 11:26:26;;;;;;;14.60;8.10;;;;;;;;;;4991530;28;20059;-78
2022/11/12 11:29:14;;;;;;;15.50;8.88;;;;;;;;;;5008818;28;20492;-78
2022/11/12 11:31:53;;;;;;;16.38;8.07;;;;;;;;;;5007781;28;20513;-78
2022/11/12 11:34:26;;;;;;;12.05;7.90;;;;;;;;;;5006315;28;20046;-78
2022/11/12 11:36:55;;;;;;;13.77;8.38;;;;;;;;;;5027960;28;20485;-77
2022/11/12 11:39:29;;;;;;;12.63;7.70;;;;;;;;;;5028179;28;20057;-78
2022/11/12 11:42:01;;;;;;;13.90;7.10;;;;;;;;;;5028495;28;20058;-78
2022/11/12 11:44:27;;;;;;;13.43;7.78;;;;;;;;;;5009414;28;20057;-78
2022/11/12 11:46:54;;;;;;;12.05;7.53;;;;;;;;;;5010223;28;20085;-78
2022/11/12 11:49:29;;;;;;;11.88;7.15;;;;;;;;;;5009822;28;20054;-77
2022/11/12 11:52:01;;;;;;;13.82;7.60;;;;;;;;;;5009831;28;20054;-77
2022/11/12 11:54:30;;;;;;;14.27;7.55;;;;;;;;;;5027014;28;20517;-76
2022/11/12 11:56:57;;;;;;;13.98;7.85;;;;;;;;;;5009732;28;20054;-78
2022/11/12 11:59:26;;;;;;;10.55;6.45;;;;;;;;;;5027292;28;20410;-76
2022/11/12 12:02:02;;;;;;;10.20;7.13;;;;;;;;;;5009680;28;20563;-78
2022/11/12 12:04:46;;;;;;;14.30;6.75;;;;;;;;;;5010419;28;20807;-77
2022/11/12 12:07:31;;;;;;;12.07;6.88;;;;;;;;;;5009670;28;20073;-76
2022/11/12 12:10:10;;;;;;;13.38;7.38;;;;;;;;;;5009337;28;20116;-76
2022/11/12 12:12:49;;;;;;;14.25;6.90;;;;;;;;;;5026731;28;20536;-76
2022/11/12 12:15:15;;;;;;;11.23;7.05;;;;;;;;;;5027456;28;20065;-77
2022/11/12 12:17:52;;;;;;;14.32;6.47;;;;;;;;;;5010493;28;20497;-76
2022/11/12 12:20:21;;;;;;;11.70;6.30;;;;;;;;;;5027311;28;20521;-78
2022/11/12 12:22:55;;;;;;;12.45;5.90;;;;;;;;;;5009168;28;20057;-78
2022/11/12 12:25:24;;;;;;;9.93;6.20;;;;;;;;;;5025392;28;20058;-76
2022/11/12 12:27:54;;;;;;;11.73;5.50;;;;;;;;;;5009181;28;20494;-77
2022/11/12 12:30:22;;;;;;;9.38;4.97;;;;;;;;;;5008861;28;20398;-78
2022/11/12 12:32:55;;;;;;;9.80;5.18;;;;;;;;;;5005722;28;20539;-77
2022/11/12 12:35:27;;;;;;;8.55;5.20;;;;;;;;;;4989566;28;20046;-76
2022/11/12 12:38:12;;;;;;;7.72;5.10;;;;;;;;;;4989167;28;20058;-76
2022/11/12 12:40:52;;;;;;;10.20;5.60;;;;;;;;;;5011401;28;20058;-77
2022/11/12 12:43:23;;;;;;;7.80;4.82;;;;;;;;;;5029126;28;20180;-77
2022/11/12 12:45:49;;;;;;;;;;;;;;;;;;5047155;28;20090;-77
2022/11/12 12:48:20;;;;;;;9.40;5.30;;;;;;;;;;5028220;28;44150;-78
2022/11/12 12:50:47;;;;;;;7.93;4.60;;;;;;;;;;5046503;28;20066;-76
2022/11/12 12:53:13;;;;;;;8.32;4.68;;;;;;;;;;5046007;28;20053;-78
2022/11/12 12:55:41;;;;;;;10.80;5.07;;;;;;;;;;5028365;28;20068;-76
2022/11/12 12:58:20;;;;;;;10.00;5.03;;;;;;;;;;5028128;28;20515;-78
2022/11/12 13:00:51;;;;;;;10.35;5.05;;;;;;;;;;5045715;28;20057;-77
2022/11/12 13:03:35;;;;;;;7.47;4.68;;;;;;;;;;5045984;28;20555;-76
2022/11/12 13:06:20;;;;;;;8.88;5.00;;;;;;;;;;5028672;28;20058;-77
2022/11/12 13:08:48;;;;;;;9.18;5.20;;;;;;;;;;5046347;28;20087;-75
2022/11/12 13:12:20;;;;;;;11.57;5.88;;;;;;;;;;5046173;28;20046;-76
2022/11/12 13:14:30;;;;;;;11.10;6.20;;;;;;;;;;5044109;28;20899;-78
2022/11/12 13:16:58;;;;;;;9.27;5.40;;;;;;;;;;5036159;28;20519;-77
2022/11/12 13:19:37;;;;;;;11.13;5.70;;;;;;;;;;5008014;28;20054;-77
2022/11/12 13:22:16;;;;;;;9.65;4.97;;;;;;;;;;5025876;28;20054;-76
2022/11/12 13:25:01;;;;;;;9.32;5.07;;;;;;;;;;5012414;28;20061;-76
2022/11/12 13:27:43;;;;;;;10.60;5.85;;;;;;;;;;5004221;28;20058;-78
2022/11/12 13:30:12;;;;;;;8.63;5.75;;;;;;;;;;4988033;28;20054;-77
2022/11/12 13:32:42;;;;;;;11.13;5.95;;;;;;;;;;5015265;28;20525;-77
2022/11/12 13:35:19;;;;;;;12.70;6.22;;;;;;;;;;5026253;28;21190;-78
2022/11/12 13:37:48;;;;;;;12.68;6.00;;;;;;;;;;5025236;28;20050;-76
2022/11/12 13:40:18;;;;;;;10.63;6.47;;;;;;;;;;5025253;28;20112;-77
2022/11/12 13:42:47;;;;;;;10.90;6.50;;;;;;;;;;5007517;28;20488;-77
2022/11/12 13:45:18;;;;;;;10.90;6.65;;;;;;;;;;5007060;28;20401;-77
2022/11/12 13:47:44;;;;;;;13.30;6.43;;;;;;;;;;5007557;28;20058;-77
2022/11/12 13:50:16;;;;;;;12.32;6.57;;;;;;;;;;5024306;28;20061;-77
2022/11/12 13:52:42;;;;;;;12.10;6.93;;;;;;;;;;5024487;28;20050;-77
2022/11/12 13:55:12;;;;;;;12.02;7.15;;;;;;;;;;5006928;28;20065;-77
2022/11/12 13:57:38;;;;;;;11.13;6.75;;;;;;;;;;5006908;28;20136;-77
2022/11/12 14:00:09;;;;;;;12.05;7.35;;;;;;;;;;5006697;28;20513;-77
2022/11/12 14:02:37;;;;;;;11.45;6.53;;;;;;;;;;5007105;28;20120;-77
2022/11/12 14:05:14;;;;;;;11.38;7.18;;;;;;;;;;5025030;28;20057;-76
2022/11/12 14:07:52;;;;;;;12.65;7.88;;;;;;;;;;5008528;28;20520;-77
2022/11/12 14:10:37;;;;;;;14.45;9.10;;;;;;;;;;5027503;28;20061;-77
2022/11/12 14:13:20;;;;;;;15.18;9.48;;;;;;;;;;5028089;28;20054;-76
2022/11/12 14:16:02;;;;;;;15.90;8.98;;;;;;;;;;5010783;28;20057;-76
2022/11/12 14:18:34;;;;;;;16.88;9.05;;;;;;;;;;5027999;28;20066;-77
2022/11/12 14:21:05;;;;;;;16.65;8.73;;;;;;;;;;5026498;28;20054;-77
2022/11/12 14:23:36;;;;;;;13.20;7.68;;;;;;;;;;5019752;28;20611;-76
2022/11/12 14:26:02;;;;;;;15.38;8.32;;;;;;;;;;5015666;28;20050;-76
2022/11/12 14:28:33;;;;;;;11.55;7.05;;;;;;;;;;4989727;28;20097;-76
2022/11/12 14:31:00;;;;;;;12.13;6.38;;;;;;;;;;4989958;28;20061;-77
2022/11/12 14:33:28;;;;;;;9.40;6.18;;;;;;;;;;5002619;28;20034;-75
2022/11/12 14:36:12;;;;;;;12.07;6.47;;;;;;;;;;5005027;28;20069;-75
2022/11/12 14:38:38;;;;;;;10.57;5.28;;;;;;;;;;5005385;28;20059;-74
2022/11/12 14:41:09;;;;;;;10.07;6.15;;;;;;;;;;5021736;28;20049;-76
2022/11/12 14:43:52;;;;;;;11.23;6.13;;;;;;;;;;5045170;28;20053;-76
2022/11/12 14:46:37;;;;;;;14.18;5.63;;;;;;;;;;5045393;28;20045;-75
2022/11/12 14:49:10;;;;;;;10.95;5.70;;;;;;;;;;5045161;28;20061;-76
2022/11/12 14:51:41;;;;;;;11.68;5.93;;;;;;;;;;5027713;28;20065;-75
2022/11/12 14:54:12;;;;;;;13.43;5.75;;;;;;;;;;5027571;28;20061;-76
2022/11/12 14:56:41;;;;;;;8.88;5.20;;;;;;;;;;5045037;28;20057;-75
2022/11/12 14:59:10;;;;;;;11.80;5.25;;;;;;;;;;5044997;28;20053;-75